Kezdőlap
METAR-TAF:

METAR-TAF

Repülőterek :

Windham Airport

Willimantic, Connecticut, Amerikai Egyesült Államok

földrajzi szélesség: 41-44-31N, földrajzi hosszúság: 072-11-01W, magasság: 75 m

Jelenlegi meteorológiai megfigyelések

A jelentés 33 perccel ezelõtt készült, 18:52 UTC
Különbözõ irányokból fújó szél 6 kt széllökések: 15 kt
Hőmérséklet 7°C
Páratartalom 24%
Légköri nyomás 1020 hPa
Látótávolság: 16.1 km
Derült ég

METAR: KIJD 221852Z AUTO VRB06G15KT 10SM CLR 07/M12 A3012 RMK AO2 SLP202 T00671122 $

Idő: 14:25 (19:25 UTC)


TAF: hiányzik

Meteorológiai megfigyelések és előrejelzések több, mint 4000 repülőtéren (METAR és TAF jelentéseket).

A térképen piros és sárga pontok jelzik az elérhető meteorológiai állomásokat.

Mozgassa az egeret a pont fölött, hogy megjelenjen az állomás neve.

Azután kattintson az időjárási megfigyelések és előrejelzések megtekintéséhez.

A térkép megváltoztatása: kattintson a fekete keresztel jelölt zöld gombra ráközelítéshez, a vonallal jelölt zöld gombra távolításhoz, vagy a zöld nyilakra a szomszédos térképek eléréséhez.


METAR-TAF: